Time;durP1;ratioP1;P1;durP2;ratioP2;P2;SDS_P1;SDS_P2;PMS_P1;PMS_P2;Temp;Humidity;BMP_temperature;BMP_pressure;BME280_temperature;BME280_humidity;BME280_pressure;Samples;Min_cycle;Max_cycle;Signal;HPM_P1;HPM_P2
2023/01/19 00:01:30;;;;;;;1999.90;999.90;;;;;;;0.52;100.00;93917.59;5067172;28;20188;-69
2023/01/19 00:03:59;;;;;;;1999.90;999.90;;;;;;;0.50;100.00;93931.38;5067139;28;20206;-70
2023/01/19 00:06:25;;;;;;;1999.90;999.90;;;;;;;0.54;100.00;93936.78;5067608;28;20165;-69
2023/01/19 00:08:50;;;;;;;1999.90;999.90;;;;;;;0.52;100.00;93945.22;5067422;28;20167;-70
2023/01/19 00:11:18;;;;;;;1999.90;999.90;;;;;;;0.57;100.00;93950.22;5066979;28;20184;-70
2023/01/19 00:13:52;;;;;;;1999.90;999.90;;;;;;;0.56;100.00;93951.38;5067517;28;20185;-70
2023/01/19 00:16:18;;;;;;;1999.90;999.90;;;;;;;0.58;100.00;93957.13;5067427;28;20172;-69
2023/01/19 00:18:49;;;;;;;1999.90;999.90;;;;;;;0.54;100.00;93969.75;5067518;28;20172;-69
2023/01/19 00:21:14;;;;;;;1999.90;999.90;;;;;;;0.59;100.00;93961.38;5066843;28;20188;-70
2023/01/19 00:23:41;;;;;;;1999.90;999.90;;;;;;;0.65;100.00;93967.91;5066808;28;20378;-70
2023/01/19 00:26:07;;;;;;;1999.90;999.90;;;;;;;0.51;100.00;93978.56;5066737;28;20165;-69
2023/01/19 00:28:33;;;;;;;1999.90;999.90;;;;;;;0.53;100.00;93968.22;5066711;28;20238;-70
2023/01/19 00:30:58;;;;;;;1999.90;999.90;;;;;;;0.52;100.00;93988.16;5066478;28;20169;-68
2023/01/19 00:33:23;;;;;;;1999.90;999.90;;;;;;;0.55;100.00;93987.44;5068103;28;20196;-67
2023/01/19 00:35:53;;;;;;;1999.90;999.90;;;;;;;0.53;100.00;93989.72;5071001;28;20190;-68
2023/01/19 00:38:19;;;;;;;1999.90;999.90;;;;;;;0.53;100.00;93995.06;5070737;28;20194;-67
2023/01/19 00:40:44;;;;;;;1999.90;999.90;;;;;;;0.59;100.00;93996.28;5070626;28;20192;-67
2023/01/19 00:43:10;;;;;;;1999.90;999.90;;;;;;;0.54;100.00;93993.16;5070572;28;20244;-67
2023/01/19 00:45:35;;;;;;;1999.90;999.90;;;;;;;0.54;100.00;94004.66;5070553;28;20184;-67
2023/01/19 00:48:01;;;;;;;1999.90;999.90;;;;;;;0.54;100.00;94014.66;5070837;28;20164;-67
2023/01/19 00:50:28;;;;;;;1999.90;999.90;;;;;;;0.57;100.00;94006.59;5070950;28;20166;-68
2023/01/19 00:52:56;;;;;;;1999.90;999.90;;;;;;;0.54;100.00;94009.28;5070386;28;20201;-68
2023/01/19 00:55:22;;;;;;;1999.90;999.90;;;;;;;0.59;100.00;94007.00;5070634;28;20168;-69
2023/01/19 00:57:48;;;;;;;1999.90;999.90;;;;;;;0.59;100.00;94007.00;5070353;28;20169;-66
2023/01/19 01:00:16;;;;;;;1999.90;999.90;;;;;;;0.56;100.00;93999.69;5070676;28;20247;-68
2023/01/19 01:02:43;;;;;;;1999.90;999.90;;;;;;;0.54;100.00;94006.59;5070245;28;20171;-69
2023/01/19 01:05:09;;;;;;;1999.90;999.90;;;;;;;0.58;100.00;94007.38;5070688;28;20172;-66
2023/01/19 01:07:43;;;;;;;1999.90;999.90;;;;;;;0.56;100.00;93999.69;5070638;28;20237;-68
2023/01/19 01:10:17;;;;;;;1999.90;999.90;;;;;;;0.54;100.00;94001.97;5070591;28;20168;-67
2023/01/19 01:12:43;;;;;;;1999.90;999.90;;;;;;;0.57;100.00;93995.88;5070606;28;20227;-67
2023/01/19 01:15:11;;;;;;;1999.90;999.90;;;;;;;0.56;100.00;93999.69;5069997;28;20180;-68
2023/01/19 01:17:46;;;;;;;1999.90;999.90;;;;;;;0.50;100.00;94003.88;5069787;28;20176;-67
2023/01/19 01:20:33;;;;;;;1999.90;999.90;;;;;;;0.47;100.00;93991.19;5070350;28;20195;-68
2023/01/19 01:22:59;;;;;;;1999.90;999.90;;;;;;;0.47;100.00;93990.44;5070483;28;20177;-68
2023/01/19 01:25:26;;;;;;;1999.90;999.90;;;;;;;0.47;100.00;93983.13;5069767;28;20234;-68
2023/01/19 01:27:52;;;;;;;1999.90;999.90;;;;;;;0.44;100.00;93991.97;5069671;28;20207;-68
2023/01/19 01:30:18;;;;;;;1999.90;999.90;;;;;;;0.37;100.00;93980.38;5070087;28;20177;-68
2023/01/19 01:32:43;;;;;;;1999.90;999.90;;;;;;;0.36;100.00;93993.03;5070118;28;20207;-68
2023/01/19 01:35:10;;;;;;;1999.90;999.90;;;;;;;0.38;100.00;93987.28;5069630;28;20181;-68
2023/01/19 01:37:36;;;;;;;1999.90;999.90;;;;;;;0.44;100.00;93986.59;5069667;28;20176;-68
2023/01/19 01:40:03;;;;;;;1999.90;999.90;;;;;;;0.46;100.00;93992.34;5069536;28;20173;-67
2023/01/19 01:42:30;;;;;;;1999.90;999.90;;;;;;;0.43;100.00;93990.41;5069433;28;20169;-67
2023/01/19 01:44:59;;;;;;;1999.90;999.90;;;;;;;0.38;100.00;93987.28;5068621;28;20183;-67
2023/01/19 01:47:32;;;;;;;1999.90;999.90;;;;;;;0.35;100.00;93983.44;5070083;28;20169;-68
2023/01/19 01:50:11;;;;;;;1999.90;999.90;;;;;;;0.29;100.00;93978.81;5069836;28;20213;-68
2023/01/19 01:52:42;;;;;;;1999.90;999.90;;;;;;;0.33;100.00;93980.38;5069805;28;20172;-67
2023/01/19 01:55:09;;;;;;;1999.90;999.90;;;;;;;0.36;100.00;93971.56;5069720;28;20173;-69
2023/01/19 01:57:38;;;;;;;1999.90;999.90;;;;;;;0.37;100.00;93965.06;5069201;28;20173;-68
2023/01/19 02:00:05;;;;;;;1999.90;999.90;;;;;;;0.38;100.00;93966.59;5069332;28;20184;-69
2023/01/19 02:02:50;;;;;;;1999.90;999.90;;;;;;;0.35;100.00;93967.34;5069048;28;20196;-68
2023/01/19 02:05:34;;;;;;;1999.90;999.90;;;;;;;0.36;100.00;93952.78;5069602;28;20172;-68
2023/01/19 02:13:56;;;;;;;1999.90;999.90;;;;;;;0.32;100.00;93946.59;5086625;28;20264;-68
2023/01/19 02:16:21;;;;;;;1999.90;999.90;;;;;;;0.31;100.00;93941.63;5068845;28;20181;-69
2023/01/19 02:18:47;;;;;;;1999.90;999.90;;;;;;;0.27;100.00;93949.66;5068825;28;20176;-68
2023/01/19 02:21:30;;;;;;;1999.90;999.90;;;;;;;0.32;100.00;93943.94;5069185;28;20173;-68
2023/01/19 02:23:57;;;;;;;1999.90;999.90;;;;;;;0.28;100.00;93945.81;5068671;28;20172;-68
2023/01/19 02:26:27;;;;;;;1999.90;999.90;;;;;;;0.25;100.00;93949.25;5068618;28;20180;-68
2023/01/19 02:28:56;;;;;;;1999.90;999.90;;;;;;;0.19;100.00;93958.03;5068653;28;20195;-68
2023/01/19 02:31:22;;;;;;;1999.90;999.90;;;;;;;0.17;100.00;93950.34;5068378;28;20173;-69
2023/01/19 02:33:48;;;;;;;1999.90;999.90;;;;;;;0.16;100.00;93954.19;5068402;28;20204;-69
2023/01/19 02:36:16;;;;;;;1999.90;999.90;;;;;;;0.10;100.00;93958.34;5068627;28;20217;-70
2023/01/19 02:38:44;;;;;;;1999.90;999.90;;;;;;;0.10;100.00;93954.91;5068446;28;20180;-70
2023/01/19 02:41:14;;;;;;;1999.90;999.90;;;;;;;0.10;100.00;93971.75;5068555;28;20173;-70
2023/01/19 02:43:41;;;;;;;1999.90;999.90;;;;;;;0.00;100.00;93972.47;5068316;28;20165;-69
2023/01/19 02:46:07;;;;;;;1999.90;999.90;;;;;;;-0.01;100.00;93976.28;5068761;28;20176;-70
2023/01/19 02:48:32;;;;;;;1999.90;999.90;;;;;;;-0.02;100.00;93985.47;5068647;28;20213;-70
2023/01/19 02:51:08;;;;;;;1999.90;999.90;;;;;;;-0.07;100.00;93994.63;5068721;28;20161;-71
2023/01/19 02:53:52;;;;;;;1999.90;999.90;;;;;;;-0.15;100.00;94000.28;5068670;28;20200;-71
2023/01/19 02:56:51;;;;;;;1999.90;999.90;;;;;;;-0.13;100.00;93998.00;5068553;28;20169;-71
2023/01/19 02:59:30;;;;;;;1999.90;999.90;;;;;;;-0.12;100.00;94011.06;5068661;28;20203;-69
2023/01/19 03:02:25;;;;;;;1999.90;999.90;;;;;;;-0.21;100.00;94009.81;5068588;28;20173;-68
2023/01/19 03:04:50;;;;;;;1999.90;999.90;;;;;;;-0.13;100.00;94012.19;5068477;28;20184;-70
2023/01/19 03:07:26;;;;;;;1999.90;999.90;;;;;;;-0.06;100.00;94011.50;5067870;28;20180;-71
2023/01/19 03:10:02;;;;;;;1999.90;999.90;;;;;;;-0.04;100.00;94014.56;5067914;28;20164;-71
2023/01/19 03:12:40;;;;;;;1999.90;999.90;;;;;;;-0.08;100.00;94013.75;5068239;28;20245;-70
2023/01/19 03:15:17;;;;;;;1999.90;999.90;;;;;;;-0.04;100.00;94014.56;5067774;28;20181;-70
2023/01/19 03:17:45;;;;;;;1999.90;999.90;;;;;;;-0.09;100.00;94017.59;5068205;28;20176;-70
2023/01/19 03:20:17;;;;;;;1999.90;999.90;;;;;;;-0.08;100.00;94019.13;5067685;28;20331;-69
2023/01/19 03:22:43;;;;;;;1999.90;999.90;;;;;;;-0.16;100.00;94014.84;5068078;28;20172;-72
2023/01/19 03:25:11;;;;;;;1999.90;999.90;;;;;;;-0.23;100.00;94018.22;5067896;28;20176;-71
2023/01/19 03:27:40;;;;;;;1999.90;999.90;;;;;;;-0.19;100.00;94026.28;5068176;28;20185;-68
2023/01/19 03:30:21;;;;;;;1999.90;999.90;;;;;;;-0.25;100.00;94028.53;5067581;28;20180;-68
2023/01/19 03:32:50;;;;;;;1999.90;999.90;;;;;;;-0.33;100.00;94034.19;5068047;28;20172;-68
2023/01/19 03:35:19;;;;;;;1999.90;999.90;;;;;;;-0.29;100.00;94032.34;5067429;28;20180;-68
2023/01/19 03:37:49;;;;;;;1999.90;999.90;;;;;;;-0.30;100.00;94022.75;5067382;28;20206;-67
2023/01/19 03:40:15;;;;;;;1999.90;999.90;;;;;;;-0.37;100.00;94028.03;5067992;28;20191;-68
2023/01/19 03:42:43;;;;;;;1999.90;999.90;;;;;;;-0.30;100.00;94020.84;5067279;28;20210;-68
2023/01/19 03:45:13;;;;;;;1999.90;999.90;;;;;;;-0.32;100.00;94014.31;5067486;28;20165;-68
2023/01/19 03:47:42;;;;;;;1999.90;999.90;;;;;;;-0.39;100.00;94014.25;5068134;28;20169;-68
2023/01/19 03:50:13;;;;;;;1999.90;999.90;;;;;;;-0.41;100.00;94005.78;5066957;28;20302;-68
2023/01/19 03:52:38;;;;;;;1999.90;999.90;;;;;;;-0.52;100.00;94005.69;5067089;28;20241;-67
2023/01/19 03:55:04;;;;;;;1999.90;999.90;;;;;;;-0.59;100.00;93996.78;5067229;28;20171;-68
2023/01/19 03:57:30;;;;;;;1999.90;999.90;;;;;;;-0.57;100.00;93995.31;5066982;28;20177;-69
2023/01/19 03:59:56;;;;;;;1999.90;999.90;;;;;;;-0.61;100.00;93996.41;5067757;28;20239;-68
2023/01/19 04:02:22;;;;;;;1999.90;999.90;;;;;;;-0.67;100.00;93992.50;5067027;28;20171;-68
2023/01/19 04:04:48;;;;;;;1999.90;999.90;;;;;;;-0.62;100.00;93995.63;5067099;28;20198;-69
2023/01/19 04:07:13;;;;;;;1999.90;999.90;;;;;;;-0.61;100.00;93981.06;5067034;28;20174;-69
2023/01/19 04:09:39;;;;;;;1999.90;999.90;;;;;;;-0.63;100.00;93977.22;5067140;28;20171;-68
2023/01/19 04:12:04;;;;;;;1999.90;999.90;;;;;;;-0.63;100.00;93979.91;5067077;28;20210;-68
2023/01/19 04:14:30;;;;;;;1999.90;999.90;;;;;;;-0.63;100.00;93979.91;5067307;28;20201;-70
2023/01/19 04:16:55;;;;;;;1999.90;999.90;;;;;;;-0.69;100.00;93973.34;5067337;28;20168;-69
2023/01/19 04:19:20;;;;;;;1999.90;999.90;;;;;;;-0.73;100.00;93962.56;5066832;28;20213;-69
2023/01/19 04:21:49;;;;;;;1999.90;999.90;;;;;;;-0.80;100.00;93967.09;5067099;28;20174;-70
2023/01/19 04:24:15;;;;;;;1999.90;999.90;;;;;;;-0.84;100.00;93955.59;5067326;28;20188;-69
2023/01/19 04:26:41;;;;;;;1999.90;999.90;;;;;;;-0.89;100.00;93953.22;5066829;28;20183;-67
2023/01/19 04:29:06;;;;;;;1999.90;999.90;;;;;;;-0.89;100.00;93948.63;5066853;28;20172;-68
2023/01/19 04:31:34;;;;;;;1999.90;999.90;;;;;;;-0.89;100.00;93943.28;5066791;28;20226;-68
2023/01/19 04:33:59;;;;;;;1999.90;999.90;;;;;;;-0.95;100.00;93943.97;5066674;28;20210;-69
2023/01/19 04:36:25;;;;;;;1999.90;999.90;;;;;;;-1.00;100.00;93941.59;5066713;28;20186;-69
2023/01/19 04:38:50;;;;;;;1999.90;999.90;;;;;;;-1.04;100.00;93930.88;5066908;28;20172;-69
2023/01/19 04:41:16;;;;;;;1999.90;999.90;;;;;;;-1.01;100.00;93918.66;5066862;28;20199;-69
2023/01/19 04:43:41;;;;;;;1999.90;999.90;;;;;;;-0.99;100.00;93911.00;5066979;28;20238;-69
2023/01/19 04:46:06;;;;;;;1999.90;999.90;;;;;;;-1.01;100.00;93908.72;5067299;28;20263;-67
2023/01/19 04:48:32;;;;;;;1999.90;999.90;;;;;;;-1.06;100.00;93916.31;5066589;28;20246;-68
2023/01/19 04:50:57;;;;;;;1999.90;999.90;;;;;;;-1.12;100.00;93912.41;5067032;28;20173;-71
2023/01/19 04:53:22;;;;;;;1999.90;999.90;;;;;;;-1.18;100.00;93920.00;5067148;28;20195;-70
2023/01/19 04:55:53;;;;;;;1999.90;999.90;;;;;;;-1.21;100.00;93922.63;5066684;28;20172;-68
2023/01/19 04:58:19;;;;;;;1999.90;999.90;;;;;;;-1.28;100.00;93915.28;5067121;28;20163;-71
2023/01/19 05:00:44;;;;;;;1999.90;999.90;;;;;;;-1.31;100.00;93915.25;5066806;28;20224;-69
2023/01/19 05:03:10;;;;;;;1999.90;999.90;;;;;;;-1.36;100.00;93915.56;5066599;28;20212;-70
2023/01/19 05:05:35;;;;;;;1999.90;999.90;;;;;;;-1.40;100.00;93912.84;5067054;28;20167;-68
2023/01/19 05:08:00;;;;;;;1999.90;999.90;;;;;;;-1.40;100.00;93912.06;5066448;28;20193;-69
2023/01/19 05:10:26;;;;;;;1999.90;999.90;;;;;;;-1.43;100.00;93918.16;5067009;28;20174;-69
2023/01/19 05:12:52;;;;;;;1999.90;999.90;;;;;;;-1.45;100.00;93915.06;5066454;28;20191;-69
2023/01/19 05:15:17;;;;;;;1999.90;999.90;;;;;;;-1.48;100.00;93916.59;5066173;28;20167;-69
2023/01/19 05:17:43;;;;;;;1999.90;999.90;;;;;;;-1.50;100.00;93921.50;5066592;28;20229;-69
2023/01/19 05:20:10;;;;;;;1999.90;999.90;;;;;;;-1.49;100.00;93914.28;5067325;28;20254;-69
2023/01/19 05:22:38;;;;;;;1999.90;999.90;;;;;;;-1.50;100.00;93902.00;5070607;28;20170;-70
2023/01/19 05:25:04;;;;;;;1999.90;999.90;;;;;;;-1.53;100.00;93900.06;5069718;28;20212;-72
2023/01/19 05:27:30;;;;;;;1999.90;999.90;;;;;;;-1.54;100.00;93903.88;5069836;28;20170;-71
2023/01/19 05:29:56;;;;;;;1999.90;999.90;;;;;;;-1.49;100.00;93895.53;5069365;28;20169;-68
2023/01/19 05:32:21;;;;;;;1999.90;999.90;;;;;;;-1.42;100.00;93871.53;5069893;28;20173;-69
2023/01/19 05:34:46;;;;;;;1999.90;999.90;;;;;;;-1.33;100.00;93882.72;5070484;28;20197;-69
2023/01/19 05:37:12;;;;;;;1999.90;999.90;;;;;;;-1.33;100.00;93874.69;5069707;28;20220;-69
2023/01/19 05:39:37;;;;;;;1999.90;999.90;;;;;;;-1.32;100.00;93884.25;5069391;28;20198;-68
2023/01/19 05:42:02;;;;;;;1999.90;999.90;;;;;;;-1.30;100.00;93879.31;5069568;28;20175;-69
2023/01/19 05:44:28;;;;;;;1999.90;999.90;;;;;;;-1.33;100.00;93877.38;5069510;28;20169;-69
2023/01/19 05:46:53;;;;;;;1999.90;999.90;;;;;;;-1.36;100.00;93880.75;5070042;28;20173;-69
2023/01/19 05:49:19;;;;;;;1999.90;999.90;;;;;;;-1.41;100.00;93883.78;5066098;28;20272;-68
2023/01/19 05:51:44;;;;;;;1999.90;999.90;;;;;;;-1.44;100.00;93879.16;5066191;28;20172;-67
2023/01/19 05:54:14;;;;;;;1999.90;999.90;;;;;;;-1.47;100.00;93890.56;5066280;28;20199;-70
2023/01/19 05:56:39;;;;;;;1999.90;999.90;;;;;;;-1.50;100.00;93892.06;5065869;28;20198;-68
2023/01/19 05:59:04;;;;;;;1999.90;999.90;;;;;;;-1.52;100.00;93851.56;5065961;28;20170;-68
2023/01/19 06:01:30;;;;;;;1999.90;999.90;;;;;;;-1.54;100.00;93848.47;5065860;28;20170;-69
2023/01/19 06:03:55;;;;;;;1999.90;999.90;;;;;;;-1.55;100.00;93846.16;5066123;28;20179;-67
2023/01/19 06:06:20;;;;;;;1999.90;999.90;;;;;;;-1.53;100.00;93849.25;5065778;28;20171;-68
2023/01/19 06:08:46;;;;;;;1999.90;999.90;;;;;;;-1.50;100.00;93837.78;5065575;28;20170;-68
2023/01/19 06:11:12;;;;;;;1999.90;999.90;;;;;;;-1.45;100.00;93829.44;5065832;28;20180;-67
2023/01/19 06:13:38;;;;;;;1999.90;999.90;;;;;;;-1.43;100.00;93829.84;5065711;28;20200;-67
2023/01/19 06:16:04;;;;;;;1999.90;999.90;;;;;;;-1.42;100.00;93824.13;5065533;28;20220;-68
2023/01/19 06:18:30;;;;;;;1999.90;999.90;;;;;;;-1.35;100.00;93823.44;5065637;28;20172;-68
2023/01/19 06:20:57;;;;;;;1999.90;999.90;;;;;;;-1.34;100.00;93817.69;5065439;28;20187;-68
2023/01/19 06:23:29;;;;;;;1999.90;999.90;;;;;;;-1.23;100.00;93810.56;5065361;28;20176;-69
2023/01/19 06:25:55;;;;;;;1999.90;999.90;;;;;;;-1.22;100.00;93814.00;5065234;28;20174;-67
2023/01/19 06:28:21;;;;;;;1999.90;999.90;;;;;;;-1.26;100.00;93805.94;5065106;28;20170;-68
2023/01/19 06:30:51;;;;;;;1999.90;999.90;;;;;;;-1.26;100.00;93818.56;5065023;28;20171;-68
2023/01/19 06:33:17;;;;;;;1999.90;999.90;;;;;;;-1.31;100.00;93816.97;5065622;28;20190;-68
2023/01/19 06:35:47;;;;;;;1999.90;999.90;;;;;;;-1.31;100.00;93826.94;5064994;28;20166;-68
2023/01/19 06:38:13;;;;;;;1999.90;999.90;;;;;;;-1.32;100.00;93828.03;5065181;28;20171;-68
2023/01/19 06:40:39;;;;;;;1999.90;999.90;;;;;;;-1.33;100.00;93837.22;5065225;28;20175;-68
2023/01/19 06:43:06;;;;;;;1999.90;999.90;;;;;;;-1.38;100.00;93846.34;5065498;28;20167;-68
2023/01/19 06:45:31;;;;;;;1999.90;999.90;;;;;;;-1.42;100.00;93850.13;5064708;28;20241;-69
2023/01/19 06:47:56;;;;;;;1999.90;999.90;;;;;;;-1.40;100.00;93853.19;5065562;28;20211;-70
2023/01/19 06:50:22;;;;;;;1999.90;999.90;;;;;;;-1.39;100.00;93860.09;5068187;28;20198;-68
2023/01/19 06:52:51;;;;;;;1999.90;999.90;;;;;;;-1.35;100.00;93871.63;5068892;28;20189;-69
2023/01/19 06:55:16;;;;;;;1999.90;999.90;;;;;;;-1.32;100.00;93873.53;5068279;28;20178;-70
2023/01/19 06:57:43;;;;;;;1999.90;999.90;;;;;;;-1.31;100.00;93883.13;5068108;28;20169;-70
2023/01/19 07:00:10;;;;;;;1999.90;999.90;;;;;;;-1.29;100.00;93888.88;5068650;28;20175;-69
2023/01/19 07:02:41;;;;;;;1999.90;999.90;;;;;;;-1.22;100.00;93891.63;5068328;28;20254;-69
2023/01/19 07:05:08;;;;;;;1999.90;999.90;;;;;;;-1.16;100.00;93895.53;5068187;28;20252;-69
2023/01/19 07:07:33;;;;;;;1999.90;999.90;;;;;;;-1.12;100.00;93909.72;5067776;28;20220;-68
2023/01/19 07:09:59;;;;;;;1999.90;999.90;;;;;;;-1.08;100.00;93923.94;5068324;28;20170;-68
2023/01/19 07:12:24;;;;;;;1999.90;999.90;;;;;;;-1.02;100.00;93943.91;5067558;28;20169;-69
2023/01/19 07:14:50;;;;;;;1999.90;999.90;;;;;;;-1.05;100.00;93960.69;5068112;28;20269;-68
2023/01/19 07:17:16;;;;;;;1999.90;999.90;;;;;;;-1.07;100.00;93990.50;5068199;28;20249;-68
2023/01/19 07:19:45;;;;;;;1999.90;999.90;;;;;;;-1.04;100.00;93999.72;5067977;28;20198;-67
2023/01/19 07:22:10;;;;;;;1999.90;999.90;;;;;;;-1.04;100.00;94027.28;5067575;28;20250;-66
2023/01/19 07:24:36;;;;;;;1999.90;999.90;;;;;;;-1.02;100.00;94041.06;5067377;28;20188;-68
2023/01/19 07:27:02;;;;;;;1999.90;999.90;;;;;;;-1.00;100.00;94054.88;5067989;28;20174;-67
2023/01/19 07:29:27;;;;;;;1999.90;999.90;;;;;;;-0.96;100.00;94068.28;5067679;28;20171;-67
2023/01/19 07:31:53;;;;;;;1999.90;999.90;;;;;;;-0.97;100.00;94080.16;5067515;28;20217;-67
2023/01/19 07:34:19;;;;;;;1999.90;999.90;;;;;;;-0.96;100.00;94092.41;5067327;28;20207;-67
2023/01/19 07:36:45;;;;;;;1999.90;999.90;;;;;;;-0.92;100.00;94106.59;5066943;28;20170;-67
2023/01/19 07:39:10;;;;;;;1999.90;999.90;;;;;;;-0.91;100.00;94121.56;5067707;28;20524;-66
2023/01/19 07:41:35;;;;;;;1999.90;999.90;;;;;;;-0.89;100.00;94140.72;5067301;28;20177;-67
2023/01/19 07:44:01;;;;;;;1999.90;999.90;;;;;;;-0.96;100.00;94159.34;5066624;28;20191;-66
2023/01/19 07:46:26;;;;;;;1999.90;999.90;;;;;;;-0.96;100.00;94178.09;5067490;28;20171;-67
2023/01/19 07:48:51;;;;;;;1999.90;999.90;;;;;;;-0.90;100.00;94180.13;5066989;28;20220;-67
2023/01/19 07:51:17;;;;;;;1999.90;999.90;;;;;;;-0.81;100.00;94190.56;5067324;28;20166;-67
2023/01/19 07:53:44;;;;;;;1999.90;999.90;;;;;;;-0.78;100.00;94208.59;5067787;28;20198;-67
2023/01/19 07:56:10;;;;;;;1999.90;999.90;;;;;;;-0.68;100.00;94221.41;5067078;28;20168;-67
2023/01/19 07:58:35;;;;;;;1999.90;999.90;;;;;;;-0.54;100.00;94224.28;5067382;28;20170;-67
2023/01/19 08:01:05;;;;;;;1999.90;999.90;;;;;;;-0.37;100.00;94237.13;5067247;28;20171;-67
2023/01/19 08:03:32;;;;;;;1999.90;999.90;;;;;;;-0.31;100.00;94243.75;5067266;28;20176;-67
2023/01/19 08:05:58;;;;;;;1999.90;999.90;;;;;;;-0.23;100.00;94258.78;5067625;28;20213;-67
2023/01/19 08:08:24;;;;;;;1999.90;999.90;;;;;;;-0.16;100.00;94280.34;5067225;28;20191;-67
2023/01/19 08:10:50;;;;;;;1999.90;999.90;;;;;;;-0.07;100.00;94286.22;5067070;28;20168;-67
2023/01/19 08:13:15;;;;;;;1999.90;999.90;;;;;;;0.03;100.00;94299.78;5067091;28;20195;-70
2023/01/19 08:15:41;;;;;;;1999.90;999.90;;;;;;;0.03;100.00;94320.44;5067280;28;20172;-68
2023/01/19 08:18:08;;;;;;;1999.90;999.90;;;;;;;0.12;100.00;94326.34;5067438;28;20160;-67
2023/01/19 08:20:34;;;;;;;1999.90;999.90;;;;;;;0.05;100.00;94339.66;5066990;28;20275;-68
2023/01/19 08:23:01;;;;;;;1999.90;999.90;;;;;;;0.13;100.00;94353.94;5067615;28;20168;-66
2023/01/19 08:25:39;;;;;;;1999.90;999.90;;;;;;;0.23;100.00;94364.81;5066792;28;20166;-66
2023/01/19 08:28:05;;;;;;;1999.90;999.90;;;;;;;0.36;100.00;94363.44;5067452;28;20187;-67
2023/01/19 08:30:32;;;;;;;1999.90;999.90;;;;;;;0.51;100.00;94373.22;5067326;28;20332;-70
2023/01/19 08:33:02;;;;;;;1999.90;999.90;;;;;;;0.62;100.00;94370.69;5067320;28;20168;-69
2023/01/19 08:35:36;;;;;;;1999.90;999.90;;;;;;;0.68;100.00;94388.81;5067269;28;20199;-69
2023/01/19 08:38:03;;;;;;;1999.90;999.90;;;;;;;0.74;100.00;94392.72;5067132;28;20185;-70
2023/01/19 08:40:29;;;;;;;1999.90;999.90;;;;;;;0.77;100.00;94394.69;5067243;28;20175;-70
2023/01/19 08:43:04;;;;;;;1999.90;999.90;;;;;;;0.85;100.00;94396.31;5066635;28;20191;-70
2023/01/19 08:45:30;;;;;;;1999.90;999.90;;;;;;;0.83;100.00;94406.63;5067017;28;20164;-69
2023/01/19 08:47:57;;;;;;;1999.90;999.90;;;;;;;0.94;100.00;94401.41;5066610;28;20176;-69
2023/01/19 08:50:31;;;;;;;1999.90;999.90;;;;;;;1.12;100.00;94413.09;5067017;28;20173;-68
2023/01/19 08:52:58;;;;;;;1999.90;999.90;;;;;;;1.20;100.00;94410.13;5066668;28;20172;-70
2023/01/19 08:55:24;;;;;;;1999.90;999.90;;;;;;;1.49;100.00;94417.34;5069364;28;20174;-70
2023/01/19 08:57:55;;;;;;;1999.90;999.90;;;;;;;1.45;100.00;94424.63;5070361;28;20180;-70
2023/01/19 09:00:21;;;;;;;1999.90;999.90;;;;;;;1.64;100.00;94423.66;5070876;28;20173;-69
2023/01/19 09:02:47;;;;;;;1999.90;999.90;;;;;;;1.56;100.00;94422.03;5070738;28;20264;-70
2023/01/19 09:05:12;;;;;;;1999.90;999.90;;;;;;;1.55;100.00;94421.25;5070233;28;20177;-70
2023/01/19 09:07:38;;;;;;;1999.90;999.90;;;;;;;1.73;100.00;94430.28;5070592;28;20244;-69
2023/01/19 09:10:04;;;;;;;1999.90;999.90;;;;;;;1.82;100.00;94429.97;5070561;28;20251;-68
2023/01/19 09:12:32;;;;;;;1999.90;999.90;;;;;;;1.77;100.00;94431.06;5070000;28;20180;-67
2023/01/19 09:14:57;;;;;;;1999.90;999.90;;;;;;;1.83;100.00;94443.06;5070447;28;20201;-68
2023/01/19 09:17:22;;;;;;;1999.90;999.90;;;;;;;1.75;100.00;94436.03;5069940;28;20199;-67
2023/01/19 09:19:48;;;;;;;1999.90;999.90;;;;;;;1.86;100.00;94442.28;5069837;28;20196;-66
2023/01/19 09:22:13;;;;;;;1999.90;999.90;;;;;;;2.03;100.00;94436.28;5069827;28;20237;-67
2023/01/19 09:24:39;;;;;;;1999.90;999.90;;;;;;;2.04;100.00;94437.84;5069712;28;20169;-67
2023/01/19 09:27:04;;;;;;;1999.90;999.90;;;;;;;2.20;100.00;94445.66;5069921;28;20173;-67
2023/01/19 09:29:32;;;;;;;1999.90;999.90;;;;;;;2.15;100.00;94452.16;5069530;28;20169;-72
2023/01/19 09:31:57;;;;;;;1999.90;999.90;;;;;;;2.03;100.00;94447.06;5069738;28;20238;-68
2023/01/19 09:34:24;;;;;;;1999.90;999.90;;;;;;;2.19;100.00;94449.50;5069830;28;20420;-69
2023/01/19 09:36:50;;;;;;;1999.90;999.90;;;;;;;2.53;100.00;94453.59;5070150;28;20169;-68
2023/01/19 09:39:16;;;;;;;1999.90;999.90;;;;;;;2.60;100.00;94451.72;5069785;28;20240;-69
2023/01/19 09:41:47;;;;;;;1999.90;999.90;;;;;;;2.69;100.00;94462.94;5069842;28;20223;-69
2023/01/19 09:44:30;;;;;;;1999.90;999.90;;;;;;;2.96;100.00;94458.84;5070070;28;20172;-70
2023/01/19 09:46:56;;;;;;;1999.90;999.90;;;;;;;2.85;100.00;94466.09;5069993;28;20227;-69
2023/01/19 09:49:38;;;;;;;1999.90;999.90;;;;;;;2.71;100.00;94463.34;5069447;28;20212;-69
2023/01/19 09:52:04;;;;;;;1999.90;999.90;;;;;;;3.07;100.00;94467.00;5069963;28;20446;-69
2023/01/19 09:54:48;;;;;;;1999.90;999.90;;;;;;;3.28;100.00;94462.47;5069090;28;20197;-69
2023/01/19 09:57:14;;;;;;;1999.90;999.90;;;;;;;3.25;100.00;94463.22;5069824;28;20157;-69
2023/01/19 09:59:42;;;;;;;1999.90;999.90;;;;;;;3.26;100.00;94461.31;5069195;28;20169;-70
2023/01/19 10:02:39;;;;;;;1999.90;999.90;;;;;;;3.34;100.00;94466.34;5069999;28;20173;-69
2023/01/19 10:05:24;;;;;;;1999.90;999.90;;;;;;;3.28;100.00;94470.56;5069586;28;20166;-69
2023/01/19 10:08:07;;;;;;;1999.90;999.90;;;;;;;3.56;100.00;94450.25;5069007;28;20153;-68
2023/01/19 10:10:34;;;;;;;1999.90;999.90;;;;;;;3.16;100.00;94460.09;5069626;28;20170;-68
2023/01/19 10:13:24;;;;;;;1999.90;999.90;;;;;;;3.33;100.00;94462.13;5068847;28;20172;-70
2023/01/19 10:16:01;;;;;;;1999.90;999.90;;;;;;;3.17;100.00;94461.66;5069424;28;20161;-69
2023/01/19 10:18:46;;;;;;;1999.90;999.90;;;;;;;3.32;100.00;94462.50;5068776;28;20173;-68
2023/01/19 10:21:34;;;;;;;1999.90;999.90;;;;;;;3.32;100.00;94462.50;5069276;28;20171;-67
2023/01/19 10:23:59;;;;;;;1999.90;999.90;;;;;;;3.13;100.00;94455.47;5068452;28;20223;-68
2023/01/19 10:26:35;;;;;;;1999.90;999.90;;;;;;;3.34;100.00;94463.66;5069195;28;20171;-68
2023/01/19 10:29:05;;;;;;;1999.90;999.90;;;;;;;3.44;100.00;94454.84;5068574;28;20166;-69
2023/01/19 10:31:32;;;;;;;1999.90;999.90;;;;;;;3.40;100.00;94459.41;5068798;28;20167;-68
2023/01/19 10:33:58;;;;;;;1999.90;999.90;;;;;;;3.50;100.00;94464.09;5068383;28;20518;-68
2023/01/19 10:36:38;;;;;;;1999.90;999.90;;;;;;;3.37;100.00;94464.81;5068162;28;20245;-71
2023/01/19 10:39:05;;;;;;;1999.90;999.90;;;;;;;3.38;100.00;94463.66;5068356;28;20169;-70
2023/01/19 10:41:37;;;;;;;1999.90;999.90;;;;;;;3.30;100.00;94460.16;5068462;28;20237;-71
2023/01/19 10:44:04;;;;;;;1999.90;999.90;;;;;;;3.28;100.00;94462.47;5068662;28;20166;-71
2023/01/19 10:46:43;;;;;;;1999.90;999.90;;;;;;;3.29;100.00;94463.25;5068713;28;20166;-70
2023/01/19 10:49:34;;;;;;;1999.90;999.90;;;;;;;3.16;100.00;94457.41;5068588;28;20209;-69
2023/01/19 10:52:00;;;;;;;1999.90;999.90;;;;;;;3.21;100.00;94451.66;5068701;28;20164;-70
2023/01/19 10:54:28;;;;;;;1999.90;999.90;;;;;;;3.35;100.00;94459.78;5068461;28;20374;-68
2023/01/19 10:57:02;;;;;;;1999.90;999.90;;;;;;;3.43;100.00;94458.66;5068363;28;20259;-71
2023/01/19 10:59:48;;;;;;;1999.90;999.90;;;;;;;3.57;100.00;94451.78;5067964;28;20165;-68
2023/01/19 11:02:18;;;;;;;1999.90;999.90;;;;;;;3.63;100.00;94450.22;5068603;28;20243;-70